createdAt,value
2018-03-02T00:00:51.830Z,-10.36
2018-03-02T00:03:17.794Z,-10.39
2018-03-02T00:05:43.723Z,-10.39
2018-03-02T00:08:09.682Z,-10.43
2018-03-02T00:10:35.545Z,-10.45
2018-03-02T00:13:01.448Z,-10.48
2018-03-02T00:15:27.401Z,-10.36
2018-03-02T00:17:53.337Z,-10.51
2018-03-02T00:20:19.327Z,-10.54
2018-03-02T00:22:45.454Z,-10.50
2018-03-02T00:25:11.344Z,-10.46
2018-03-02T00:27:37.916Z,-10.47
2018-03-02T00:30:03.836Z,-10.58
2018-03-02T00:32:29.689Z,-10.59
2018-03-02T00:34:55.590Z,-10.59
2018-03-02T00:37:21.474Z,-10.59
2018-03-02T00:39:47.430Z,-10.61
2018-03-02T00:42:13.461Z,-10.57
2018-03-02T00:44:39.403Z,-10.68
2018-03-02T00:47:05.278Z,-10.69
2018-03-02T00:49:31.509Z,-10.68
2018-03-02T00:51:57.456Z,-10.68
2018-03-02T00:54:23.397Z,-10.70
2018-03-02T00:56:49.305Z,-10.64
2018-03-02T00:59:15.201Z,-10.72
2018-03-02T01:01:41.066Z,-10.78
2018-03-02T01:04:07.126Z,-10.74
2018-03-02T01:06:33.050Z,-10.87
2018-03-02T01:08:58.922Z,-10.78
2018-03-02T01:11:24.990Z,-10.85
2018-03-02T01:13:50.852Z,-10.82
2018-03-02T01:16:16.818Z,-10.81
2018-03-02T01:18:42.806Z,-10.82
2018-03-02T01:21:08.690Z,-10.83
2018-03-02T01:23:34.558Z,-10.84
2018-03-02T01:26:00.531Z,-10.92
2018-03-02T01:28:26.497Z,-10.79
2018-03-02T01:30:52.438Z,-10.90
2018-03-02T01:33:18.384Z,-10.88
2018-03-02T01:35:44.290Z,-10.92
2018-03-02T01:38:10.163Z,-10.96
2018-03-02T01:40:36.348Z,-10.90
2018-03-02T01:43:02.304Z,-10.96
2018-03-02T01:45:28.191Z,-11.01
2018-03-02T01:47:54.102Z,-10.98
2018-03-02T01:50:19.986Z,-11.03
2018-03-02T01:52:45.946Z,-10.93
2018-03-02T01:55:11.901Z,-10.96
2018-03-02T01:57:37.772Z,-11.02
2018-03-02T02:00:03.674Z,-11.03
2018-03-02T02:02:31.422Z,-10.94
2018-03-02T02:04:57.412Z,-11.01
2018-03-02T02:07:23.345Z,-11.07
2018-03-02T02:09:49.242Z,-11.06
2018-03-02T02:12:15.113Z,-11.14
2018-03-02T02:14:40.989Z,-11.06
2018-03-02T02:17:07.286Z,-11.13
2018-03-02T02:19:33.207Z,-11.08
2018-03-02T02:21:59.086Z,-11.11
2018-03-02T02:24:25.015Z,-11.15
2018-03-02T02:26:50.884Z,-11.28
2018-03-02T02:29:17.720Z,-11.22
2018-03-02T02:31:43.670Z,-11.14
2018-03-02T02:34:09.534Z,-11.28
2018-03-02T02:36:35.388Z,-11.27
2018-03-02T02:39:01.314Z,-11.16
2018-03-02T02:41:27.281Z,-11.19
2018-03-02T02:43:53.209Z,-11.31
2018-03-02T02:46:19.123Z,-11.27
2018-03-02T02:48:44.973Z,-11.25
2018-03-02T02:51:10.850Z,-11.26
2018-03-02T02:53:36.841Z,-11.32
2018-03-02T02:56:02.765Z,-11.29
2018-03-02T02:58:28.646Z,-11.25
2018-03-02T03:00:54.954Z,-11.33
2018-03-02T03:03:20.830Z,-11.40
2018-03-02T03:05:47.080Z,-11.29
2018-03-02T03:08:13.058Z,-11.33
2018-03-02T03:10:38.938Z,-11.33
2018-03-02T03:13:04.802Z,-11.37
2018-03-02T03:15:30.790Z,-11.33
2018-03-02T03:17:56.756Z,-11.31
2018-03-02T03:20:22.667Z,-11.27
2018-03-02T03:22:48.580Z,-11.33
2018-03-02T03:25:14.453Z,-11.40
2018-03-02T03:27:40.313Z,-11.38
2018-03-02T03:30:06.673Z,-11.45
2018-03-02T03:32:32.577Z,-11.46
2018-03-02T03:34:58.453Z,-11.55
2018-03-02T03:37:24.434Z,-11.57
2018-03-02T03:39:50.294Z,-11.52
2018-03-02T03:42:16.262Z,-11.47
2018-03-02T03:44:42.229Z,-11.55
2018-03-02T03:47:08.157Z,-11.53
2018-03-02T03:49:34.038Z,-11.53
2018-03-02T03:51:59.935Z,-11.61
2018-03-02T03:54:25.881Z,-11.63
2018-03-02T03:56:51.808Z,-11.67
2018-03-02T03:59:17.742Z,-11.70
2018-03-02T04:01:43.613Z,-11.70
2018-03-02T04:04:09.498Z,-11.66
2018-03-02T04:06:35.666Z,-11.63
2018-03-02T04:09:01.586Z,-11.71
2018-03-02T04:11:27.461Z,-11.64
2018-03-02T04:13:53.362Z,-11.68
2018-03-02T04:16:19.222Z,-11.70
2018-03-02T04:18:45.171Z,-11.69
2018-03-02T04:21:11.212Z,-11.70
2018-03-02T04:23:37.062Z,-11.69
2018-03-02T04:26:02.922Z,-11.73
2018-03-02T04:28:28.836Z,-11.67
2018-03-02T04:30:55.361Z,-11.81
2018-03-02T04:33:21.277Z,-11.77
2018-03-02T04:35:47.193Z,-11.76
2018-03-02T04:38:13.053Z,-11.78
2018-03-02T04:40:38.913Z,-11.86
2018-03-02T04:43:05.264Z,-11.79
2018-03-02T04:45:31.208Z,-11.84
2018-03-02T04:47:57.477Z,-11.84
2018-03-02T04:50:23.538Z,-11.83
2018-03-02T04:52:49.426Z,-11.86
2018-03-02T04:55:15.376Z,-11.79
2018-03-02T04:57:41.365Z,-11.91
2018-03-02T05:00:07.232Z,-11.94
2018-03-02T05:02:33.104Z,-11.94
2018-03-02T05:04:59.011Z,-12.00
2018-03-02T05:07:24.958Z,-12.04
2018-03-02T05:09:50.884Z,-11.99
2018-03-02T05:12:16.809Z,-11.97
2018-03-02T05:14:42.663Z,-12.02
2018-03-02T05:17:08.625Z,-11.97
2018-03-02T05:19:34.796Z,-12.01
2018-03-02T05:22:00.710Z,-12.04
2018-03-02T05:24:26.593Z,-12.05
2018-03-02T05:26:52.510Z,-11.95
2018-03-02T05:29:18.373Z,-11.99
2018-03-02T05:31:44.341Z,-12.04
2018-03-02T05:34:10.318Z,-12.08
2018-03-02T05:36:36.184Z,-12.09
2018-03-02T05:39:02.068Z,-12.05
2018-03-02T05:41:28.034Z,-12.01
2018-03-02T05:43:54.006Z,-12.02
2018-03-02T05:46:19.918Z,-11.95
2018-03-02T05:48:45.847Z,-11.99
2018-03-02T05:51:11.709Z,-12.01
2018-03-02T05:53:37.561Z,-12.00
2018-03-02T05:56:03.586Z,-12.04
2018-03-02T05:58:29.502Z,-12.05
2018-03-02T06:00:55.370Z,-12.04
2018-03-02T06:03:21.271Z,-11.97
2018-03-02T06:05:47.120Z,-11.83
2018-03-02T06:08:13.074Z,-11.76
2018-03-02T06:10:39.038Z,-11.85
2018-03-02T06:13:04.911Z,-11.80
2018-03-02T06:15:30.785Z,-11.71
2018-03-02T06:17:56.829Z,-11.71
2018-03-02T06:20:22.760Z,-11.65
2018-03-02T06:22:48.687Z,-11.55
2018-03-02T06:25:14.589Z,-11.46
2018-03-02T06:27:40.546Z,-11.45
2018-03-02T06:30:06.410Z,-11.33
2018-03-02T06:32:32.739Z,-11.28
2018-03-02T06:34:58.663Z,-11.32
2018-03-02T06:37:24.550Z,-11.28
2018-03-02T06:39:50.452Z,-11.13
2018-03-02T06:42:16.330Z,-11.12
2018-03-02T06:44:42.290Z,-10.93
2018-03-02T06:47:08.254Z,-10.92
2018-03-02T06:49:34.173Z,-10.91
2018-03-02T06:52:00.036Z,-10.74
2018-03-02T06:54:25.953Z,-10.61
2018-03-02T06:56:51.914Z,-10.54
2018-03-02T06:59:17.881Z,-10.40
2018-03-02T07:01:43.793Z,-10.37
2018-03-02T07:04:09.656Z,-10.17
2018-03-02T07:06:35.554Z,-10.21
2018-03-02T07:09:01.529Z,-10.10
2018-03-02T07:11:27.446Z,-10.07
2018-03-02T07:13:53.321Z,-10.01
2018-03-02T07:16:19.217Z,-9.98
2018-03-02T07:18:45.085Z,-9.96
2018-03-02T07:21:11.075Z,-9.85
2018-03-02T07:23:37.035Z,-9.86
2018-03-02T07:26:02.966Z,-9.74
2018-03-02T07:28:28.887Z,-9.70
2018-03-02T07:30:54.798Z,-9.69
2018-03-02T07:33:20.810Z,-9.76
2018-03-02T07:35:46.804Z,-9.74
2018-03-02T07:38:12.768Z,-9.62
2018-03-02T07:40:38.628Z,-9.54
2018-03-02T07:43:04.590Z,-9.43
2018-03-02T07:45:30.602Z,-9.50
2018-03-02T07:47:56.530Z,-9.45
2018-03-02T07:50:22.411Z,-9.12
2018-03-02T07:52:48.629Z,-9.08
2018-03-02T07:55:14.551Z,-8.97
2018-03-02T07:57:40.492Z,-8.83
2018-03-02T08:00:06.534Z,-8.80
2018-03-02T08:02:32.414Z,-8.65
2018-03-02T08:04:58.278Z,-8.47
2018-03-02T08:07:24.346Z,-8.33
2018-03-02T08:09:50.316Z,-8.27
2018-03-02T08:12:16.245Z,-8.02
2018-03-02T08:14:42.150Z,-7.96
2018-03-02T08:17:08.012Z,-7.80
2018-03-02T08:19:33.874Z,-7.90
2018-03-02T08:21:59.861Z,-7.63
2018-03-02T08:24:25.781Z,-7.73
2018-03-02T08:26:51.663Z,-7.61
2018-03-02T08:29:17.573Z,-7.33
2018-03-02T08:31:43.443Z,-7.30
2018-03-02T08:34:09.878Z,-7.12
2018-03-02T08:36:35.945Z,-7.16
2018-03-02T08:39:01.895Z,-7.02
2018-03-02T08:41:27.764Z,-6.72
2018-03-02T08:43:53.692Z,-6.77
2018-03-02T08:46:19.647Z,-6.75
2018-03-02T08:48:45.853Z,-6.74
2018-03-02T08:51:12.653Z,-6.82
2018-03-02T08:53:38.536Z,-6.83
2018-03-02T08:56:04.401Z,-6.99
2018-03-02T08:58:30.394Z,-6.81
2018-03-02T09:00:56.364Z,-6.70
2018-03-02T09:03:22.326Z,-6.39
2018-03-02T09:05:48.258Z,-6.20
2018-03-02T09:08:14.133Z,-6.15
2018-03-02T09:10:40.083Z,-6.07
2018-03-02T09:13:06.041Z,-6.19
2018-03-02T09:15:31.925Z,-6.19
2018-03-02T09:17:57.790Z,-6.08
2018-03-02T09:20:23.706Z,-5.67
2018-03-02T09:22:49.670Z,-5.58
2018-03-02T09:25:15.600Z,-5.42
2018-03-02T09:27:41.579Z,-5.27
2018-03-02T09:30:07.529Z,-5.35
2018-03-02T09:32:33.352Z,-5.51
2018-03-02T09:34:59.369Z,-5.27
2018-03-02T09:37:25.273Z,-5.18
2018-03-02T09:39:51.125Z,-5.14
2018-03-02T09:42:17.465Z,-4.95
2018-03-02T09:44:43.337Z,-5.08
2018-03-02T09:47:09.302Z,-4.97
2018-03-02T09:49:35.287Z,-4.67
2018-03-02T09:52:01.166Z,-4.33
2018-03-02T09:54:27.039Z,-4.37
2018-03-02T09:56:52.958Z,-4.15
2018-03-02T09:59:18.939Z,-3.48
2018-03-02T10:01:44.857Z,-3.70
2018-03-02T10:04:11.282Z,-3.72
2018-03-02T10:06:37.145Z,-3.24
2018-03-02T10:09:03.041Z,-3.20
2018-03-02T10:11:29.028Z,-3.43
2018-03-02T10:13:54.951Z,-3.65
2018-03-02T10:16:20.818Z,-3.33
2018-03-02T10:18:46.738Z,-3.30
2018-03-02T10:21:12.680Z,-3.62
2018-03-02T10:23:38.613Z,-3.86
2018-03-02T10:26:04.567Z,-3.44
2018-03-02T10:28:30.424Z,-3.19
2018-03-02T10:30:56.334Z,-2.78
2018-03-02T10:33:22.315Z,-2.82
2018-03-02T10:35:48.266Z,-2.70
2018-03-02T10:38:14.178Z,-3.07
2018-03-02T10:40:40.076Z,-2.78
2018-03-02T10:43:05.932Z,-2.59
2018-03-02T10:45:31.801Z,-2.84
2018-03-02T10:47:57.796Z,-3.00
2018-03-02T10:50:24.755Z,-2.68
2018-03-02T10:52:50.630Z,-2.83
2018-03-02T10:55:16.590Z,-2.97
2018-03-02T10:57:42.448Z,-2.86
2018-03-02T11:00:08.450Z,-2.54
2018-03-02T11:02:34.426Z,-2.11
2018-03-02T11:05:07.663Z,-1.98
2018-03-02T11:07:33.634Z,-2.05
2018-03-02T11:09:59.702Z,-2.01
2018-03-02T11:12:25.705Z,-1.73
2018-03-02T11:14:51.789Z,-1.93
2018-03-02T11:17:17.747Z,-2.06
2018-03-02T11:19:44.906Z,-2.68
2018-03-02T11:22:10.810Z,-2.16
2018-03-02T11:24:36.780Z,-1.68
2018-03-02T11:27:02.770Z,-1.72
2018-03-02T11:29:28.700Z,-1.42
2018-03-02T11:31:54.570Z,-1.39
2018-03-02T11:34:20.471Z,-1.66
2018-03-02T11:36:46.487Z,-2.07
2018-03-02T11:39:12.470Z,-1.40
2018-03-02T11:41:38.354Z,-0.64
2018-03-02T11:44:04.372Z,-1.47
2018-03-02T11:46:30.245Z,-1.70
2018-03-02T11:48:56.218Z,-1.20
2018-03-02T11:51:22.557Z,-0.73
2018-03-02T11:53:48.455Z,-0.61
2018-03-02T11:56:14.326Z,-0.54
2018-03-02T11:58:40.394Z,-0.43
2018-03-02T12:01:06.374Z,-1.03
2018-03-02T12:03:32.290Z,-0.73
2018-03-02T12:05:58.200Z,-1.36
2018-03-02T12:08:24.050Z,-1.42
2018-03-02T12:10:49.916Z,-1.23
2018-03-02T12:13:15.996Z,-0.73
2018-03-02T12:15:42.029Z,-1.22
2018-03-02T12:18:07.896Z,-1.18
2018-03-02T12:20:33.791Z,-0.85
2018-03-02T12:22:59.670Z,-0.86
2018-03-02T12:25:25.649Z,-0.86
2018-03-02T12:27:51.618Z,-1.00
2018-03-02T12:30:17.536Z,-1.12
2018-03-02T12:32:43.413Z,-0.96
2018-03-02T12:35:09.317Z,-1.39
2018-03-02T12:37:35.252Z,-0.97
2018-03-02T12:40:01.601Z,-0.71
2018-03-02T12:42:27.586Z,-0.81
2018-03-02T12:44:53.456Z,-1.42
2018-03-02T12:47:19.341Z,-1.56
2018-03-02T12:49:45.599Z,-1.46
2018-03-02T12:52:11.515Z,-1.22
2018-03-02T12:54:37.393Z,-1.03
2018-03-02T12:57:03.777Z,-1.27
2018-03-02T12:59:29.632Z,-1.05
2018-03-02T13:01:55.602Z,-1.38
2018-03-02T13:04:21.607Z,-1.64
2018-03-02T13:06:47.470Z,-1.60
2018-03-02T13:09:13.334Z,-2.00
2018-03-02T13:11:39.274Z,-2.03
2018-03-02T13:14:05.226Z,-2.00
2018-03-02T13:16:31.140Z,-2.04
2018-03-02T13:18:57.066Z,-2.09
2018-03-02T13:21:22.929Z,-2.08
2018-03-02T13:23:48.794Z,-2.12
2018-03-02T13:26:28.689Z,-2.07
2018-03-02T13:28:54.674Z,-2.19
2018-03-02T13:31:20.540Z,-2.46
2018-03-02T13:33:58.810Z,-2.59
2018-03-02T13:36:24.766Z,-2.57
2018-03-02T13:38:50.626Z,-2.54
2018-03-02T13:41:28.840Z,-2.42
2018-03-02T13:43:54.733Z,-2.21
2018-03-02T13:46:20.602Z,-2.58
2018-03-02T13:48:58.912Z,-2.44
2018-03-02T13:51:24.783Z,-2.43
2018-03-02T13:53:50.711Z,-2.96
2018-03-02T13:56:28.968Z,-2.76
2018-03-02T13:58:54.923Z,-2.79
2018-03-02T14:01:20.818Z,-2.62
2018-03-02T14:03:59.227Z,-2.46
2018-03-02T14:06:25.144Z,-2.55
2018-03-02T14:08:50.999Z,-2.54
2018-03-02T14:11:17.074Z,-2.91
2018-03-02T14:13:42.979Z,-3.02
2018-03-02T14:16:08.893Z,-2.82
2018-03-02T14:18:34.809Z,-2.80
2018-03-02T14:21:00.670Z,-2.75
2018-03-02T14:23:26.638Z,-2.75
2018-03-02T14:25:52.570Z,-2.74
2018-03-02T14:28:19.334Z,-2.68
2018-03-02T14:30:45.207Z,-2.68
2018-03-02T14:33:11.157Z,-2.67
2018-03-02T14:35:37.154Z,-2.57
2018-03-02T14:38:03.071Z,-2.71
2018-03-02T14:40:29.130Z,-2.71
2018-03-02T14:42:55.016Z,-2.60
2018-03-02T14:45:20.890Z,-2.56
2018-03-02T14:47:46.888Z,-2.40
2018-03-02T14:50:12.912Z,-2.55
2018-03-02T14:52:38.811Z,-2.53
2018-03-02T14:55:04.762Z,-2.71
2018-03-02T14:57:30.663Z,-2.56
2018-03-02T14:59:56.600Z,-2.71
2018-03-02T15:02:22.578Z,-2.57
2018-03-02T15:04:49.129Z,-2.76
2018-03-02T15:07:15.222Z,-2.88
2018-03-02T15:09:41.134Z,-2.79
2018-03-02T15:12:07.081Z,-2.87
2018-03-02T15:14:33.317Z,-2.82
2018-03-02T15:16:59.377Z,-2.95
2018-03-02T15:19:25.257Z,-3.01
2018-03-02T15:21:51.122Z,-3.05
2018-03-02T15:24:17.869Z,-3.11
2018-03-02T15:26:43.814Z,-3.19
2018-03-02T15:29:09.742Z,-3.22
2018-03-02T15:31:35.678Z,-3.15
2018-03-02T15:34:01.595Z,-3.18
2018-03-02T15:36:27.530Z,-3.29
2018-03-02T15:38:53.467Z,-3.25
2018-03-02T15:41:19.440Z,-3.19
2018-03-02T15:43:45.374Z,-3.35
2018-03-02T15:46:11.292Z,-3.30
2018-03-02T15:48:37.225Z,-3.44
2018-03-02T15:51:03.096Z,-3.43
2018-03-02T15:53:29.304Z,-3.58
2018-03-02T15:55:55.187Z,-3.69
2018-03-02T15:58:21.060Z,-3.64
2018-03-02T16:00:47.078Z,-3.78
2018-03-02T16:03:12.964Z,-3.68
2018-03-02T16:05:38.877Z,-3.90
2018-03-02T16:08:04.986Z,-3.90
2018-03-02T16:10:30.922Z,-3.91
2018-03-02T16:12:56.892Z,-4.01
2018-03-02T16:15:22.826Z,-4.13
2018-03-02T16:17:48.755Z,-4.11
2018-03-02T16:20:14.711Z,-4.19
2018-03-02T16:22:40.616Z,-4.22
2018-03-02T16:25:06.591Z,-4.35
2018-03-02T16:27:32.484Z,-4.29
2018-03-02T16:29:58.443Z,-4.46
2018-03-02T16:32:24.319Z,-4.41
2018-03-02T16:34:50.239Z,-4.56
2018-03-02T16:37:16.247Z,-4.40
2018-03-02T16:39:42.141Z,-4.41
2018-03-02T16:42:08.059Z,-4.58
2018-03-02T16:44:34.426Z,-4.67
2018-03-02T16:47:00.287Z,-4.67
2018-03-02T16:49:26.344Z,-4.82
2018-03-02T16:51:52.386Z,-4.78
2018-03-02T16:54:18.327Z,-4.84
2018-03-02T16:56:46.459Z,-4.95
2018-03-02T16:59:12.575Z,-4.96
2018-03-02T17:01:38.696Z,-5.15
2018-03-02T17:04:04.586Z,-5.18
2018-03-02T17:06:30.760Z,-5.21
2018-03-02T17:08:56.657Z,-5.30
2018-03-02T17:11:22.522Z,-5.33
2018-03-02T17:13:48.533Z,-5.36
2018-03-02T17:16:14.461Z,-5.33
2018-03-02T17:18:40.406Z,-5.37
2018-03-02T17:21:06.387Z,-5.44
2018-03-02T17:23:32.362Z,-5.52
2018-03-02T17:25:58.350Z,-5.55
2018-03-02T17:28:24.297Z,-5.55
2018-03-02T17:30:50.210Z,-5.66
2018-03-02T17:33:16.300Z,-5.70
2018-03-02T17:35:44.146Z,-5.64
2018-03-02T17:38:10.102Z,-5.64
2018-03-02T17:40:36.445Z,-5.64
2018-03-02T17:43:02.625Z,-5.73
2018-03-02T17:45:28.515Z,-5.75
2018-03-02T17:47:54.385Z,-5.63
2018-03-02T17:50:20.290Z,-5.65
2018-03-02T17:52:46.186Z,-5.73
2018-03-02T17:55:12.107Z,-5.74
2018-03-02T17:57:38.033Z,-5.82
2018-03-02T18:00:03.993Z,-5.84
2018-03-02T18:02:29.878Z,-5.84
2018-03-02T18:04:55.781Z,-5.84
2018-03-02T18:07:21.834Z,-5.80
2018-03-02T18:09:47.711Z,-5.83
2018-03-02T18:12:14.226Z,-5.86
2018-03-02T18:14:40.148Z,-5.93
2018-03-02T18:17:06.043Z,-5.94
2018-03-02T18:19:32.173Z,-5.93
2018-03-02T18:21:58.056Z,-6.00
2018-03-02T18:24:23.974Z,-6.06
2018-03-02T18:26:49.915Z,-6.16
2018-03-02T18:29:15.842Z,-6.13
2018-03-02T18:31:41.747Z,-6.18
2018-03-02T18:34:07.681Z,-6.20
2018-03-02T18:36:33.575Z,-6.22
2018-03-02T18:38:59.935Z,-6.24
2018-03-02T18:41:25.850Z,-6.19
2018-03-02T18:43:51.730Z,-6.21
2018-03-02T18:46:17.673Z,-6.17
2018-03-02T18:48:43.571Z,-6.29
2018-03-02T18:51:09.420Z,-6.23
2018-03-02T18:53:35.291Z,-6.31
2018-03-02T18:56:01.215Z,-6.33
2018-03-02T18:58:27.074Z,-6.36
2018-03-02T19:00:52.946Z,-6.40
2018-03-02T19:03:18.944Z,-6.44
2018-03-02T19:05:44.803Z,-6.42
2018-03-02T19:08:10.682Z,-6.50
2018-03-02T19:10:36.594Z,-6.51
2018-03-02T19:13:02.455Z,-6.59
2018-03-02T19:15:28.393Z,-6.58
2018-03-02T19:17:54.334Z,-6.59
2018-03-02T19:20:20.242Z,-6.59
2018-03-02T19:22:46.157Z,-6.57
2018-03-02T19:25:12.067Z,-6.71
2018-03-02T19:27:37.944Z,-6.77
2018-03-02T19:30:03.810Z,-6.84
2018-03-02T19:32:29.705Z,-6.76
2018-03-02T19:34:55.558Z,-6.80
2018-03-02T19:37:21.410Z,-6.86
2018-03-02T19:39:47.654Z,-6.86
2018-03-02T19:42:13.542Z,-6.87
2018-03-02T19:44:39.400Z,-6.94
2018-03-02T19:47:05.466Z,-6.83
2018-03-02T19:49:31.313Z,-6.91
2018-03-02T19:51:58.601Z,-6.87
2018-03-02T19:54:24.555Z,-6.98
2018-03-02T19:56:50.439Z,-7.04
2018-03-02T19:59:16.306Z,-7.01
2018-03-02T20:01:42.855Z,-7.10
2018-03-02T20:04:08.810Z,-7.17
2018-03-02T20:06:34.702Z,-7.21
2018-03-02T20:09:00.618Z,-7.18
2018-03-02T20:11:26.483Z,-7.19
2018-03-02T20:13:52.386Z,-7.26
2018-03-02T20:16:18.678Z,-7.18
2018-03-02T20:18:44.534Z,-7.21
2018-03-02T20:21:10.486Z,-7.12
2018-03-02T20:23:36.485Z,-7.21
2018-03-02T20:26:02.370Z,-7.16
2018-03-02T20:28:28.509Z,-7.24
2018-03-02T20:30:54.411Z,-7.21
2018-03-02T20:33:20.599Z,-7.28
2018-03-02T20:35:46.502Z,-7.37
2018-03-02T20:38:12.421Z,-7.37
2018-03-02T20:40:38.286Z,-7.39
2018-03-02T20:43:04.168Z,-7.36
2018-03-02T20:45:30.179Z,-7.38
2018-03-02T20:47:56.369Z,-7.36
2018-03-02T20:50:22.266Z,-7.45
2018-03-02T20:52:48.176Z,-7.48
2018-03-02T20:55:14.047Z,-7.54
2018-03-02T20:57:40.092Z,-7.59
2018-03-02T21:00:06.018Z,-7.52
2018-03-02T21:02:31.971Z,-7.55
2018-03-02T21:04:59.121Z,-7.66
2018-03-02T21:07:25.044Z,-7.75
2018-03-02T21:09:51.511Z,-7.81
2018-03-02T21:12:17.395Z,-7.87
2018-03-02T21:14:43.511Z,-7.91
2018-03-02T21:17:09.500Z,-7.85
2018-03-02T21:19:35.372Z,-7.89
2018-03-02T21:22:01.391Z,-8.03
2018-03-02T21:24:27.250Z,-7.93
2018-03-02T21:26:53.187Z,-8.02
2018-03-02T21:29:19.127Z,-8.06
2018-03-02T21:31:45.007Z,-8.06
2018-03-02T21:34:10.958Z,-7.99
2018-03-02T21:36:36.888Z,-8.08
2018-03-02T21:39:02.774Z,-8.08
2018-03-02T21:41:28.651Z,-8.11
2018-03-02T21:43:54.833Z,-8.06
2018-03-02T21:46:20.796Z,-8.01
2018-03-02T21:48:46.699Z,-8.09
2018-03-02T21:51:14.410Z,-8.08
2018-03-02T21:53:40.339Z,-8.16
2018-03-02T21:56:06.289Z,-8.28
2018-03-02T21:58:32.304Z,-8.17
2018-03-02T22:00:58.170Z,-8.28
2018-03-02T22:03:24.050Z,-8.28
2018-03-02T22:05:49.984Z,-8.33
2018-03-02T22:08:15.990Z,-8.41
2018-03-02T22:10:41.958Z,-8.38
2018-03-02T22:13:07.978Z,-8.37
2018-03-02T22:15:33.845Z,-8.40
2018-03-02T22:18:00.037Z,-8.32
2018-03-02T22:20:26.041Z,-8.45
2018-03-02T22:22:52.001Z,-8.43
2018-03-02T22:25:17.925Z,-8.51
2018-03-02T22:27:43.838Z,-8.48
2018-03-02T22:30:09.733Z,-8.46
2018-03-02T22:32:35.598Z,-8.56
2018-03-02T22:35:01.598Z,-8.52
2018-03-02T22:37:27.497Z,-8.60
2018-03-02T22:39:53.347Z,-8.58
2018-03-02T22:42:19.276Z,-8.58
2018-03-02T22:44:45.146Z,-8.66
2018-03-02T22:47:11.127Z,-8.72
2018-03-02T22:49:37.193Z,-8.70
2018-03-02T22:52:03.077Z,-8.66
2018-03-02T22:54:28.926Z,-8.65
2018-03-02T22:56:54.826Z,-8.57
2018-03-02T22:59:20.767Z,-8.69
2018-03-02T23:01:46.617Z,-8.65
2018-03-02T23:04:12.552Z,-8.68
2018-03-02T23:06:38.419Z,-8.68
2018-03-02T23:09:04.281Z,-8.78
2018-03-02T23:11:30.268Z,-8.72
2018-03-02T23:13:56.499Z,-8.78
2018-03-02T23:16:22.367Z,-8.85
2018-03-02T23:18:48.305Z,-8.81
2018-03-02T23:21:14.164Z,-8.79
2018-03-02T23:23:40.145Z,-8.82
2018-03-02T23:26:06.046Z,-8.94
2018-03-02T23:28:32.544Z,-8.99
2018-03-02T23:30:58.423Z,-9.02
2018-03-02T23:33:24.343Z,-9.03
2018-03-02T23:35:50.314Z,-8.99
2018-03-02T23:38:16.174Z,-9.03
2018-03-02T23:40:42.089Z,-9.03
2018-03-02T23:43:07.953Z,-9.05
2018-03-02T23:45:33.815Z,-9.00
2018-03-02T23:48:00.670Z,-9.03
2018-03-02T23:50:26.542Z,-9.08
2018-03-02T23:52:52.642Z,-9.08
2018-03-02T23:55:18.549Z,-9.14
2018-03-02T23:57:44.430Z,-9.21
